sensor_id;sensor_type;location;lat;lon;timestamp;pressure;altitude;pressure_sealevel;temperature;humidity
6413;BME280;3239;48.714;9.472;2023-04-06T00:00:43;98438.09;;;0.69;100.00
6413;BME280;3239;48.714;9.472;2023-04-06T00:03:09;98436.63;;;0.68;100.00
6413;BME280;3239;48.714;9.472;2023-04-06T00:05:35;98439.47;;;0.65;100.00
6413;BME280;3239;48.714;9.472;2023-04-06T00:08:01;98438.41;;;0.53;100.00
6413;BME280;3239;48.714;9.472;2023-04-06T00:10:27;98431.66;;;0.58;100.00
6413;BME280;3239;48.714;9.472;2023-04-06T00:12:53;98426.44;;;0.63;100.00
6413;BME280;3239;48.714;9.472;2023-04-06T00:15:20;98424.34;;;0.58;100.00
6413;BME280;3239;48.714;9.472;2023-04-06T00:17:46;98430.03;;;0.51;100.00
6413;BME280;3239;48.714;9.472;2023-04-06T00:20:12;98423.16;;;0.50;100.00
6413;BME280;3239;48.714;9.472;2023-04-06T00:23:21;98427.94;;;0.46;100.00
6413;BME280;3239;48.714;9.472;2023-04-06T00:25:47;98427.78;;;0.50;100.00
6413;BME280;3239;48.714;9.472;2023-04-06T00:28:13;98427.03;;;0.49;100.00
6413;BME280;3239;48.714;9.472;2023-04-06T00:30:40;98427.94;;;0.37;100.00
6413;BME280;3239;48.714;9.472;2023-04-06T00:33:06;98417.91;;;0.38;100.00
6413;BME280;3239;48.714;9.472;2023-04-06T00:35:32;98430.19;;;0.30;100.00
6413;BME280;3239;48.714;9.472;2023-04-06T00:37:58;98427.50;;;0.39;100.00
6413;BME280;3239;48.714;9.472;2023-04-06T00:40:24;98423.59;;;0.31;100.00
6413;BME280;3239;48.714;9.472;2023-04-06T00:42:50;98422.25;;;0.35;100.00
6413;BME280;3239;48.714;9.472;2023-04-06T00:45:16;98423.31;;;0.38;100.00
6413;BME280;3239;48.714;9.472;2023-04-06T00:47:41;98424.47;;;0.10;100.00
6413;BME280;3239;48.714;9.472;2023-04-06T00:50:08;98419.41;;;0.12;100.00
6413;BME280;3239;48.714;9.472;2023-04-06T00:52:34;98414.63;;;0.25;100.00
6413;BME280;3239;48.714;9.472;2023-04-06T00:55:00;98415.53;;;0.22;100.00
6413;BME280;3239;48.714;9.472;2023-04-06T00:57:26;98419.13;;;0.28;100.00
6413;BME280;3239;48.714;9.472;2023-04-06T00:59:52;98409.06;;;0.01;100.00
6413;BME280;3239;48.714;9.472;2023-04-06T01:02:18;98414.91;;;0.00;100.00
6413;BME280;3239;48.714;9.472;2023-04-06T01:04:44;98415.78;;;-0.21;100.00
6413;BME280;3239;48.714;9.472;2023-04-06T01:07:10;98415.47;;;-0.23;100.00
6413;BME280;3239;48.714;9.472;2023-04-06T01:09:36;98414.75;;;-0.06;100.00
6413;BME280;3239;48.714;9.472;2023-04-06T01:12:02;98415.63;;;-0.09;100.00
6413;BME280;3239;48.714;9.472;2023-04-06T01:14:29;98410.41;;;-0.03;100.00
6413;BME280;3239;48.714;9.472;2023-04-06T01:16:58;98407.72;;;-0.03;100.00
6413;BME280;3239;48.714;9.472;2023-04-06T01:19:24;98403.66;;;-0.17;100.00
6413;BME280;3239;48.714;9.472;2023-04-06T01:21:49;98405.19;;;-0.07;100.00
6413;BME280;3239;48.714;9.472;2023-04-06T01:24:16;98403.38;;;-0.10;100.00
6413;BME280;3239;48.714;9.472;2023-04-06T01:26:42;98400.53;;;-0.06;100.00
6413;BME280;3239;48.714;9.472;2023-04-06T01:29:08;98405.31;;;-0.10;100.00
6413;BME280;3239;48.714;9.472;2023-04-06T01:31:34;98400.19;;;-0.17;100.00
6413;BME280;3239;48.714;9.472;2023-04-06T01:34:00;98396.84;;;-0.57;100.00
6413;BME280;3239;48.714;9.472;2023-04-06T01:36:25;98395.56;;;-0.26;100.00
6413;BME280;3239;48.714;9.472;2023-04-06T01:38:52;98393.56;;;-0.43;100.00
6413;BME280;3239;48.714;9.472;2023-04-06T01:41:17;98397.19;;;-0.28;100.00
6413;BME280;3239;48.714;9.472;2023-04-06T01:43:44;98392.38;;;-0.51;100.00
6413;BME280;3239;48.714;9.472;2023-04-06T01:46:11;98403.78;;;-0.29;100.00
6413;BME280;3239;48.714;9.472;2023-04-06T01:48:36;98398.69;;;-0.27;100.00
6413;BME280;3239;48.714;9.472;2023-04-06T01:51:02;98394.22;;;-0.30;100.00
6413;BME280;3239;48.714;9.472;2023-04-06T01:53:28;98394.63;;;-0.41;100.00
6413;BME280;3239;48.714;9.472;2023-04-06T01:55:54;98397.50;;;-0.35;100.00
6413;BME280;3239;48.714;9.472;2023-04-06T01:58:19;98389.09;;;-0.37;100.00
6413;BME280;3239;48.714;9.472;2023-04-06T02:00:45;98384.16;;;-0.47;100.00
6413;BME280;3239;48.714;9.472;2023-04-06T02:03:11;98392.19;;;-0.57;100.00
6413;BME280;3239;48.714;9.472;2023-04-06T02:05:37;98392.66;;;-0.49;100.00
6413;BME280;3239;48.714;9.472;2023-04-06T02:08:05;98393.56;;;-0.43;100.00
6413;BME280;3239;48.714;9.472;2023-04-06T02:10:32;98392.84;;;-0.43;100.00
6413;BME280;3239;48.714;9.472;2023-04-06T02:12:58;98385.63;;;-0.47;100.00
6413;BME280;3239;48.714;9.472;2023-04-06T02:15:24;98385.78;;;-0.50;100.00
6413;BME280;3239;48.714;9.472;2023-04-06T02:17:51;98391.16;;;-0.50;100.00
6413;BME280;3239;48.714;9.472;2023-04-06T02:20:17;98388.19;;;-0.52;100.00
6413;BME280;3239;48.714;9.472;2023-04-06T02:22:43;98383.94;;;-0.71;100.00
6413;BME280;3239;48.714;9.472;2023-04-06T02:25:09;98388.88;;;-0.69;100.00
6413;BME280;3239;48.714;9.472;2023-04-06T02:27:35;98396.19;;;-0.70;100.00
6413;BME280;3239;48.714;9.472;2023-04-06T02:30:02;98391.28;;;-0.63;100.00
6413;BME280;3239;48.714;9.472;2023-04-06T02:32:28;98387.38;;;-0.70;100.00
6413;BME280;3239;48.714;9.472;2023-04-06T02:34:54;98388.88;;;-0.69;100.00
6413;BME280;3239;48.714;9.472;2023-04-06T02:37:20;98394.41;;;-0.64;100.00
6413;BME280;3239;48.714;9.472;2023-04-06T02:39:46;98383.47;;;-0.69;100.00
6413;BME280;3239;48.714;9.472;2023-04-06T02:42:12;98376.91;;;-0.68;100.00
6413;BME280;3239;48.714;9.472;2023-04-06T02:44:38;98381.53;;;-0.69;100.00
6413;BME280;3239;48.714;9.472;2023-04-06T02:47:04;98382.88;;;-0.73;100.00
6413;BME280;3239;48.714;9.472;2023-04-06T02:49:30;98377.78;;;-0.72;100.00
6413;BME280;3239;48.714;9.472;2023-04-06T02:51:55;98381.81;;;-0.76;100.00
6413;BME280;3239;48.714;9.472;2023-04-06T02:54:21;98378.06;;;-0.78;100.00
6413;BME280;3239;48.714;9.472;2023-04-06T02:56:47;98376.56;;;-0.79;100.00
6413;BME280;3239;48.714;9.472;2023-04-06T02:59:13;98369.25;;;-0.79;100.00
6413;BME280;3239;48.714;9.472;2023-04-06T03:01:38;98376.13;;;-0.78;100.00
6413;BME280;3239;48.714;9.472;2023-04-06T03:04:04;98371.63;;;-0.81;100.00
6413;BME280;3239;48.714;9.472;2023-04-06T03:06:30;98372.25;;;-0.77;100.00
6413;BME280;3239;48.714;9.472;2023-04-06T03:08:56;98378.22;;;-0.82;100.00
6413;BME280;3239;48.714;9.472;2023-04-06T03:11:21;98376.66;;;-0.92;100.00
6413;BME280;3239;48.714;9.472;2023-04-06T03:13:47;98379.78;;;-0.93;100.00
6413;BME280;3239;48.714;9.472;2023-04-06T03:16:13;98380.50;;;-1.02;100.00
6413;BME280;3239;48.714;9.472;2023-04-06T03:18:39;98383.53;;;-1.00;100.00
6413;BME280;3239;48.714;9.472;2023-04-06T03:21:05;98383.81;;;-0.98;100.00
6413;BME280;3239;48.714;9.472;2023-04-06T03:23:30;98384.53;;;-1.06;100.00
6413;BME280;3239;48.714;9.472;2023-04-06T03:25:56;98382.47;;;-1.02;100.00
6413;BME280;3239;48.714;9.472;2023-04-06T03:28:22;98388.09;;;-1.09;100.00
6413;BME280;3239;48.714;9.472;2023-04-06T03:30:48;98387.66;;;-1.08;100.00
6413;BME280;3239;48.714;9.472;2023-04-06T03:33:14;98388.66;;;-1.14;100.00
6413;BME280;3239;48.714;9.472;2023-04-06T03:35:40;98388.06;;;-1.18;100.00
6413;BME280;3239;48.714;9.472;2023-04-06T03:38:06;98398.66;;;-1.15;100.00
6413;BME280;3239;48.714;9.472;2023-04-06T03:40:32;98410.66;;;-1.07;100.00
6413;BME280;3239;48.714;9.472;2023-04-06T03:42:58;98405.72;;;-1.08;100.00
6413;BME280;3239;48.714;9.472;2023-04-06T03:45:24;98400.31;;;-1.08;100.00
6413;BME280;3239;48.714;9.472;2023-04-06T03:47:49;98406.91;;;-1.09;100.00
6413;BME280;3239;48.714;9.472;2023-04-06T03:50:15;98396.47;;;-1.07;100.00
6413;BME280;3239;48.714;9.472;2023-04-06T03:52:41;98409.84;;;-1.16;100.00
6413;BME280;3239;48.714;9.472;2023-04-06T03:55:07;98413.41;;;-1.19;100.00
6413;BME280;3239;48.714;9.472;2023-04-06T03:57:33;98419.34;;;-1.24;100.00
6413;BME280;3239;48.714;9.472;2023-04-06T03:59:59;98416.50;;;-1.30;100.00
6413;BME280;3239;48.714;9.472;2023-04-06T04:02:25;98420.13;;;-1.24;100.00
6413;BME280;3239;48.714;9.472;2023-04-06T04:04:52;98416.50;;;-1.30;100.00
6413;BME280;3239;48.714;9.472;2023-04-06T04:07:17;98414.25;;;-1.31;100.00
6413;BME280;3239;48.714;9.472;2023-04-06T04:09:43;98421.06;;;-1.39;100.00
6413;BME280;3239;48.714;9.472;2023-04-06T04:12:09;98416.56;;;-1.42;100.00
6413;BME280;3239;48.714;9.472;2023-04-06T04:14:34;98424.19;;;-1.41;100.00
6413;BME280;3239;48.714;9.472;2023-04-06T04:17:00;98430.00;;;-1.42;100.00
6413;BME280;3239;48.714;9.472;2023-04-06T04:19:26;98435.81;;;-1.44;100.00
6413;BME280;3239;48.714;9.472;2023-04-06T04:21:52;98428.81;;;-1.41;100.00
6413;BME280;3239;48.714;9.472;2023-04-06T04:24:17;98428.50;;;-1.43;100.00
6413;BME280;3239;48.714;9.472;2023-04-06T04:26:43;98432.25;;;-1.41;100.00
6413;BME280;3239;48.714;9.472;2023-04-06T04:29:09;98441.00;;;-1.49;100.00
6413;BME280;3239;48.714;9.472;2023-04-06T04:31:35;98434.00;;;-1.47;100.00
6413;BME280;3239;48.714;9.472;2023-04-06T04:34:01;98443.31;;;-1.60;100.00
6413;BME280;3239;48.714;9.472;2023-04-06T04:36:28;98442.53;;;-1.61;100.00
6413;BME280;3239;48.714;9.472;2023-04-06T04:38:54;98448.03;;;-1.64;100.00
6413;BME280;3239;48.714;9.472;2023-04-06T04:41:19;98447.84;;;-1.70;100.00
6413;BME280;3239;48.714;9.472;2023-04-06T04:43:46;98449.31;;;-1.69;100.00
6413;BME280;3239;48.714;9.472;2023-04-06T04:46:11;98464.47;;;-1.62;100.00
6413;BME280;3239;48.714;9.472;2023-04-06T04:48:37;98455.66;;;-1.63;100.00
6413;BME280;3239;48.714;9.472;2023-04-06T04:51:04;98449.41;;;-1.60;100.00
6413;BME280;3239;48.714;9.472;2023-04-06T04:53:31;98453.59;;;-1.59;100.00
6413;BME280;3239;48.714;9.472;2023-04-06T04:55:56;98457.16;;;-1.62;100.00
6413;BME280;3239;48.714;9.472;2023-04-06T04:58:22;98459.84;;;-1.62;100.00
6413;BME280;3239;48.714;9.472;2023-04-06T05:00:48;98460.03;;;-1.56;100.00
6413;BME280;3239;48.714;9.472;2023-04-06T05:03:25;98462.63;;;-1.53;100.00
6413;BME280;3239;48.714;9.472;2023-04-06T05:05:51;98478.63;;;-1.49;100.00
6413;BME280;3239;48.714;9.472;2023-04-06T05:08:18;98467.75;;;-1.46;100.00
6413;BME280;3239;48.714;9.472;2023-04-06T05:10:44;98458.91;;;-1.46;100.00
6413;BME280;3239;48.714;9.472;2023-04-06T05:13:10;98468.38;;;-1.42;100.00
6413;BME280;3239;48.714;9.472;2023-04-06T05:15:36;98469.91;;;-1.32;100.00
6413;BME280;3239;48.714;9.472;2023-04-06T05:18:07;98470.16;;;-1.39;100.00
6413;BME280;3239;48.714;9.472;2023-04-06T05:20:33;98478.63;;;-1.49;100.00
6413;BME280;3239;48.714;9.472;2023-04-06T05:23:00;98479.97;;;-1.45;100.00
6413;BME280;3239;48.714;9.472;2023-04-06T05:25:25;98481.34;;;-1.40;100.00
6413;BME280;3239;48.714;9.472;2023-04-06T05:27:52;98485.44;;;-1.36;100.00
6413;BME280;3239;48.714;9.472;2023-04-06T05:30:18;98482.31;;;-1.34;100.00
6413;BME280;3239;48.714;9.472;2023-04-06T05:32:44;98486.53;;;-1.24;100.00
6413;BME280;3239;48.714;9.472;2023-04-06T05:35:10;98487.94;;;-1.20;100.00
6413;BME280;3239;48.714;9.472;2023-04-06T05:37:37;98487.19;;;-1.20;100.00
6413;BME280;3239;48.714;9.472;2023-04-06T05:40:03;98495.44;;;-1.15;100.00
6413;BME280;3239;48.714;9.472;2023-04-06T05:42:40;98484.13;;;-1.10;100.00
6413;BME280;3239;48.714;9.472;2023-04-06T05:45:07;98493.56;;;-1.05;100.00
6413;BME280;3239;48.714;9.472;2023-04-06T05:47:34;98495.50;;;-1.06;100.00
6413;BME280;3239;48.714;9.472;2023-04-06T05:49:59;98501.25;;;-0.95;100.00
6413;BME280;3239;48.714;9.472;2023-04-06T05:52:25;98493.22;;;-0.86;100.00
6413;BME280;3239;48.714;9.472;2023-04-06T05:54:52;98495.22;;;-0.77;100.00
6413;BME280;3239;48.714;9.472;2023-04-06T05:57:18;98486.16;;;-0.71;100.00
6413;BME280;3239;48.714;9.472;2023-04-06T05:59:44;98495.69;;;-0.79;100.00
6413;BME280;3239;48.714;9.472;2023-04-06T06:02:09;98488.75;;;-0.89;100.00
6413;BME280;3239;48.714;9.472;2023-04-06T06:04:35;98489.25;;;-0.81;100.00
6413;BME280;3239;48.714;9.472;2023-04-06T06:07:02;98492.84;;;-0.75;100.00
6413;BME280;3239;48.714;9.472;2023-04-06T06:09:27;98498.22;;;-0.45;100.00
6413;BME280;3239;48.714;9.472;2023-04-06T06:11:53;98490.53;;;-0.25;100.00
6413;BME280;3239;48.714;9.472;2023-04-06T06:14:19;98494.44;;;-0.26;100.00
6413;BME280;3239;48.714;9.472;2023-04-06T06:16:45;98489.66;;;-0.13;100.00
6413;BME280;3239;48.714;9.472;2023-04-06T06:19:11;98487.63;;;0.09;100.00
6413;BME280;3239;48.714;9.472;2023-04-06T06:21:37;98493.19;;;0.23;100.00
6413;BME280;3239;48.714;9.472;2023-04-06T06:24:03;98493.81;;;0.18;100.00
6413;BME280;3239;48.714;9.472;2023-04-06T06:26:28;98491.06;;;0.00;100.00
6413;BME280;3239;48.714;9.472;2023-04-06T06:28:54;98485.56;;;0.22;100.00
6413;BME280;3239;48.714;9.472;2023-04-06T06:31:20;98484.09;;;0.75;100.00
6413;BME280;3239;48.714;9.472;2023-04-06T06:33:49;98486.50;;;0.91;100.00
6413;BME280;3239;48.714;9.472;2023-04-06T06:36:18;98477.75;;;1.14;100.00
6413;BME280;3239;48.714;9.472;2023-04-06T06:38:44;98475.06;;;1.14;100.00
6413;BME280;3239;48.714;9.472;2023-04-06T06:41:10;98477.31;;;1.06;100.00
6413;BME280;3239;48.714;9.472;2023-04-06T06:43:36;98468.38;;;0.82;100.00
6413;BME280;3239;48.714;9.472;2023-04-06T06:46:03;98472.59;;;1.34;100.00
6413;BME280;3239;48.714;9.472;2023-04-06T06:48:28;98468.97;;;1.78;100.00
6413;BME280;3239;48.714;9.472;2023-04-06T06:50:55;98471.16;;;2.59;100.00
6413;BME280;3239;48.714;9.472;2023-04-06T06:53:21;98460.50;;;2.94;100.00
6413;BME280;3239;48.714;9.472;2023-04-06T06:55:47;98456.56;;;3.38;100.00
6413;BME280;3239;48.714;9.472;2023-04-06T06:58:14;98455.84;;;3.38;100.00
6413;BME280;3239;48.714;9.472;2023-04-06T07:00:40;98437.50;;;3.47;100.00
6413;BME280;3239;48.714;9.472;2023-04-06T07:03:06;98438.72;;;4.35;100.00
6413;BME280;3239;48.714;9.472;2023-04-06T07:05:32;98428.41;;;5.10;100.00
6413;BME280;3239;48.714;9.472;2023-04-06T07:07:58;98436.81;;;5.12;100.00
6413;BME280;3239;48.714;9.472;2023-04-06T07:10:24;98425.56;;;5.61;100.00
6413;BME280;3239;48.714;9.472;2023-04-06T07:12:50;98427.28;;;4.71;100.00
6413;BME280;3239;48.714;9.472;2023-04-06T07:15:16;98429.97;;;4.71;100.00
6413;BME280;3239;48.714;9.472;2023-04-06T07:17:42;98433.56;;;4.83;100.00
6413;BME280;3239;48.714;9.472;2023-04-06T07:20:11;98439.53;;;5.43;100.00
6413;BME280;3239;48.714;9.472;2023-04-06T07:22:38;98438.47;;;5.04;100.00
6413;BME280;3239;48.714;9.472;2023-04-06T07:25:05;98437.25;;;6.09;100.00
6413;BME280;3239;48.714;9.472;2023-04-06T07:27:31;98441.50;;;6.85;100.00
6413;BME280;3239;48.714;9.472;2023-04-06T07:29:57;98433.38;;;7.40;100.00
6413;BME280;3239;48.714;9.472;2023-04-06T07:32:22;98443.63;;;8.98;93.40
6413;BME280;3239;48.714;9.472;2023-04-06T07:34:48;98439.19;;;9.59;79.25
6413;BME280;3239;48.714;9.472;2023-04-06T07:37:14;98434.31;;;10.24;72.41
6413;BME280;3239;48.714;9.472;2023-04-06T07:39:40;98426.34;;;10.82;66.93
6413;BME280;3239;48.714;9.472;2023-04-06T07:42:06;98429.44;;;9.34;68.03
6413;BME280;3239;48.714;9.472;2023-04-06T07:44:31;98435.47;;;10.10;65.75
6413;BME280;3239;48.714;9.472;2023-04-06T07:46:57;98430.91;;;10.18;62.74
6413;BME280;3239;48.714;9.472;2023-04-06T07:49:23;98427.97;;;8.47;65.79
6413;BME280;3239;48.714;9.472;2023-04-06T07:51:49;98424.41;;;9.68;71.98
6413;BME280;3239;48.714;9.472;2023-04-06T07:54:14;98426.75;;;10.91;61.86
6413;BME280;3239;48.714;9.472;2023-04-06T07:56:40;98417.50;;;8.97;69.07
6413;BME280;3239;48.714;9.472;2023-04-06T07:59:06;98428.50;;;10.09;67.99
6413;BME280;3239;48.714;9.472;2023-04-06T08:01:32;98426.41;;;10.21;64.37
6413;BME280;3239;48.714;9.472;2023-04-06T08:03:58;98421.47;;;9.01;62.93
6413;BME280;3239;48.714;9.472;2023-04-06T08:06:24;98414.44;;;8.14;66.83
6413;BME280;3239;48.714;9.472;2023-04-06T08:08:50;98420.69;;;9.06;76.14
6413;BME280;3239;48.714;9.472;2023-04-06T08:11:16;98416.09;;;11.19;61.68
6413;BME280;3239;48.714;9.472;2023-04-06T08:13:42;98414.88;;;11.02;58.26
6413;BME280;3239;48.714;9.472;2023-04-06T08:16:08;98414.53;;;10.74;57.70
6413;BME280;3239;48.714;9.472;2023-04-06T08:18:33;98427.69;;;11.75;53.33
6413;BME280;3239;48.714;9.472;2023-04-06T08:20:59;98412.59;;;12.08;51.36
6413;BME280;3239;48.714;9.472;2023-04-06T08:23:25;98417.25;;;12.39;52.36
6413;BME280;3239;48.714;9.472;2023-04-06T08:25:51;98419.97;;;12.65;49.36
6413;BME280;3239;48.714;9.472;2023-04-06T08:28:20;98422.03;;;12.12;51.55
6413;BME280;3239;48.714;9.472;2023-04-06T08:30:46;98411.47;;;13.43;46.00
6413;BME280;3239;48.714;9.472;2023-04-06T08:33:12;98417.59;;;12.09;46.74
6413;BME280;3239;48.714;9.472;2023-04-06T08:35:38;98420.63;;;12.58;47.55
6413;BME280;3239;48.714;9.472;2023-04-06T08:38:04;98428.44;;;11.89;46.88
6413;BME280;3239;48.714;9.472;2023-04-06T08:40:39;98417.84;;;13.17;47.62
6413;BME280;3239;48.714;9.472;2023-04-06T08:43:10;98423.38;;;12.45;47.82
6413;BME280;3239;48.714;9.472;2023-04-06T08:45:40;98413.09;;;13.38;46.31
6413;BME280;3239;48.714;9.472;2023-04-06T08:48:06;98408.09;;;13.16;47.02
6413;BME280;3239;48.714;9.472;2023-04-06T08:50:33;98407.91;;;13.14;45.29
6413;BME280;3239;48.714;9.472;2023-04-06T08:53:00;98412.09;;;12.22;44.27
6413;BME280;3239;48.714;9.472;2023-04-06T08:55:26;98412.94;;;12.43;45.14
6413;BME280;3239;48.714;9.472;2023-04-06T08:57:53;98414.75;;;13.41;43.85
6413;BME280;3239;48.714;9.472;2023-04-06T09:00:21;98392.84;;;12.82;39.62
6413;BME280;3239;48.714;9.472;2023-04-06T09:02:47;98407.97;;;11.90;43.04
6413;BME280;3239;48.714;9.472;2023-04-06T09:05:14;98400.94;;;12.67;42.09
6413;BME280;3239;48.714;9.472;2023-04-06T09:07:40;98395.59;;;11.39;39.86
6413;BME280;3239;48.714;9.472;2023-04-06T09:10:07;98393.91;;;12.32;40.68
6413;BME280;3239;48.714;9.472;2023-04-06T09:12:34;98388.84;;;11.97;41.23
6413;BME280;3239;48.714;9.472;2023-04-06T09:15:01;98388.56;;;11.56;42.75
6413;BME280;3239;48.714;9.472;2023-04-06T09:17:32;98381.28;;;11.46;43.44
6413;BME280;3239;48.714;9.472;2023-04-06T09:20:03;98385.47;;;12.17;45.16
6413;BME280;3239;48.714;9.472;2023-04-06T09:22:37;98380.72;;;11.92;44.67
6413;BME280;3239;48.714;9.472;2023-04-06T09:25:04;98385.53;;;12.84;45.43
6413;BME280;3239;48.714;9.472;2023-04-06T09:27:31;98380.28;;;12.01;44.05
6413;BME280;3239;48.714;9.472;2023-04-06T09:30:12;98376.69;;;12.19;42.36
6413;BME280;3239;48.714;9.472;2023-04-06T09:32:49;98375.31;;;11.60;42.15
6413;BME280;3239;48.714;9.472;2023-04-06T09:35:16;98373.19;;;12.31;40.41
6413;BME280;3239;48.714;9.472;2023-04-06T09:37:43;98368.72;;;12.54;42.04
6413;BME280;3239;48.714;9.472;2023-04-06T09:40:09;98366.81;;;13.16;40.53
6413;BME280;3239;48.714;9.472;2023-04-06T09:42:36;98366.56;;;13.48;41.26
6413;BME280;3239;48.714;9.472;2023-04-06T09:45:03;98362.16;;;14.01;38.78
6413;BME280;3239;48.714;9.472;2023-04-06T09:47:30;98359.22;;;12.89;40.71
6413;BME280;3239;48.714;9.472;2023-04-06T09:49:59;98365.00;;;12.98;38.78
6413;BME280;3239;48.714;9.472;2023-04-06T09:55:11;98353.03;;;15.22;36.75
6413;BME280;3239;48.714;9.472;2023-04-06T09:57:51;98352.63;;;14.09;36.33
6413;BME280;3239;48.714;9.472;2023-04-06T10:00:22;98347.56;;;14.64;34.72
6413;BME280;3239;48.714;9.472;2023-04-06T10:03:27;98346.31;;;14.72;32.63
6413;BME280;3239;48.714;9.472;2023-04-06T10:06:01;98344.75;;;15.29;32.22
6413;BME280;3239;48.714;9.472;2023-04-06T10:08:30;98343.91;;;14.69;32.13
6413;BME280;3239;48.714;9.472;2023-04-06T10:10:59;98336.25;;;14.32;32.45
6413;BME280;3239;48.714;9.472;2023-04-06T10:13:26;98339.56;;;14.02;33.47
6413;BME280;3239;48.714;9.472;2023-04-06T10:15:52;98354.09;;;15.94;32.03
6413;BME280;3239;48.714;9.472;2023-04-06T10:18:20;98342.53;;;16.50;32.38
6413;BME280;3239;48.714;9.472;2023-04-06T10:21:06;98336.47;;;17.81;30.94
6413;BME280;3239;48.714;9.472;2023-04-06T10:26:14;98338.84;;;16.87;30.09
6413;BME280;3239;48.714;9.472;2023-04-06T10:28:42;98333.84;;;15.01;30.06
6413;BME280;3239;48.714;9.472;2023-04-06T10:31:08;98339.06;;;15.50;29.73
6413;BME280;3239;48.714;9.472;2023-04-06T10:33:34;98331.63;;;17.16;30.38
6413;BME280;3239;48.714;9.472;2023-04-06T10:36:12;98343.75;;;16.64;29.40
6413;BME280;3239;48.714;9.472;2023-04-06T10:38:40;98354.56;;;14.65;31.26
6413;BME280;3239;48.714;9.472;2023-04-06T10:41:08;98351.38;;;15.71;31.71
6413;BME280;3239;48.714;9.472;2023-04-06T10:43:39;98344.44;;;16.25;30.93
6413;BME280;3239;48.714;9.472;2023-04-06T10:46:08;98339.44;;;15.39;30.36
6413;BME280;3239;48.714;9.472;2023-04-06T10:48:43;98330.72;;;14.90;31.33
6413;BME280;3239;48.714;9.472;2023-04-06T10:51:17;98321.25;;;17.65;29.88
6413;BME280;3239;48.714;9.472;2023-04-06T10:53:45;98329.47;;;16.35;29.25
6413;BME280;3239;48.714;9.472;2023-04-06T10:56:17;98327.16;;;17.86;29.43
6413;BME280;3239;48.714;9.472;2023-04-06T10:58:46;98319.59;;;18.38;28.26
6413;BME280;3239;48.714;9.472;2023-04-06T11:01:17;98320.34;;;16.10;29.07
6413;BME280;3239;48.714;9.472;2023-04-06T11:03:55;98313.22;;;14.80;30.54
6413;BME280;3239;48.714;9.472;2023-04-06T11:06:30;98322.47;;;15.20;30.38
6413;BME280;3239;48.714;9.472;2023-04-06T11:08:58;98313.47;;;16.98;30.08
6413;BME280;3239;48.714;9.472;2023-04-06T11:11:25;98311.97;;;17.29;28.56
6413;BME280;3239;48.714;9.472;2023-04-06T11:13:59;98315.16;;;16.69;29.74
6413;BME280;3239;48.714;9.472;2023-04-06T11:16:27;98314.47;;;16.53;31.19
6413;BME280;3239;48.714;9.472;2023-04-06T11:19:04;98310.34;;;15.45;31.27
6413;BME280;3239;48.714;9.472;2023-04-06T11:21:36;98306.13;;;16.14;31.43
6413;BME280;3239;48.714;9.472;2023-04-06T11:24:19;98306.47;;;15.41;28.81
6413;BME280;3239;48.714;9.472;2023-04-06T11:29:25;98301.66;;;14.89;32.79
6413;BME280;3239;48.714;9.472;2023-04-06T11:32:03;98296.34;;;16.20;30.22
6413;BME280;3239;48.714;9.472;2023-04-06T11:34:32;98294.81;;;16.42;30.07
6413;BME280;3239;48.714;9.472;2023-04-06T11:37:03;98292.88;;;17.40;30.16
6413;BME280;3239;48.714;9.472;2023-04-06T11:39:31;98282.47;;;18.16;30.49
6413;BME280;3239;48.714;9.472;2023-04-06T11:42:00;98278.13;;;17.13;29.91
6413;BME280;3239;48.714;9.472;2023-04-06T11:44:38;98278.44;;;15.82;30.28
6413;BME280;3239;48.714;9.472;2023-04-06T11:47:09;98285.78;;;16.34;30.43
6413;BME280;3239;48.714;9.472;2023-04-06T11:49:41;98273.63;;;17.01;29.49
6413;BME280;3239;48.714;9.472;2023-04-06T11:52:18;98272.03;;;15.57;28.81
6413;BME280;3239;48.714;9.472;2023-04-06T11:54:45;98268.00;;;15.65;30.02
6413;BME280;3239;48.714;9.472;2023-04-06T11:57:11;98268.88;;;14.55;29.08
6413;BME280;3239;48.714;9.472;2023-04-06T11:59:37;98265.94;;;15.66;28.44
6413;BME280;3239;48.714;9.472;2023-04-06T12:02:04;98261.19;;;16.13;28.38
6413;BME280;3239;48.714;9.472;2023-04-06T12:04:30;98262.66;;;15.22;28.06
6413;BME280;3239;48.714;9.472;2023-04-06T12:06:57;98260.41;;;14.61;28.77
6413;BME280;3239;48.714;9.472;2023-04-06T12:09:23;98256.78;;;15.03;28.27
6413;BME280;3239;48.714;9.472;2023-04-06T12:11:49;98257.22;;;16.31;27.57
6413;BME280;3239;48.714;9.472;2023-04-06T12:14:15;98254.38;;;17.27;28.97
6413;BME280;3239;48.714;9.472;2023-04-06T12:16:41;98243.56;;;16.33;25.65
6413;BME280;3239;48.714;9.472;2023-04-06T12:19:07;98250.81;;;15.82;26.94
6413;BME280;3239;48.714;9.472;2023-04-06T12:21:34;98255.31;;;14.80;26.09
6413;BME280;3239;48.714;9.472;2023-04-06T12:24:03;98247.41;;;15.06;28.00
6413;BME280;3239;48.714;9.472;2023-04-06T12:26:30;98244.94;;;16.57;27.28
6413;BME280;3239;48.714;9.472;2023-04-06T12:28:56;98240.00;;;17.46;26.73
6413;BME280;3239;48.714;9.472;2023-04-06T12:31:23;98243.97;;;18.37;26.97
6413;BME280;3239;48.714;9.472;2023-04-06T12:33:51;98232.81;;;17.94;23.92
6413;BME280;3239;48.714;9.472;2023-04-06T12:36:19;98233.72;;;16.55;24.54
6413;BME280;3239;48.714;9.472;2023-04-06T12:38:50;98230.84;;;16.38;26.66
6413;BME280;3239;48.714;9.472;2023-04-06T12:41:17;98246.13;;;14.77;25.71
6413;BME280;3239;48.714;9.472;2023-04-06T12:43:44;98238.78;;;16.41;26.08
6413;BME280;3239;48.714;9.472;2023-04-06T12:46:11;98231.19;;;15.55;25.31
6413;BME280;3239;48.714;9.472;2023-04-06T12:48:37;98233.13;;;15.85;24.81
6413;BME280;3239;48.714;9.472;2023-04-06T12:51:05;98239.28;;;15.53;25.03
6413;BME280;3239;48.714;9.472;2023-04-06T12:53:35;98230.13;;;15.36;26.04
6413;BME280;3239;48.714;9.472;2023-04-06T12:56:02;98229.53;;;15.30;26.14
6413;BME280;3239;48.714;9.472;2023-04-06T12:58:28;98225.53;;;15.93;26.11
6413;BME280;3239;48.714;9.472;2023-04-06T13:00:57;98228.03;;;15.66;26.50
6413;BME280;3239;48.714;9.472;2023-04-06T13:03:23;98221.28;;;15.15;25.97
6413;BME280;3239;48.714;9.472;2023-04-06T13:05:50;98220.19;;;16.66;26.89
6413;BME280;3239;48.714;9.472;2023-04-06T13:08:18;98217.47;;;16.59;25.29
6413;BME280;3239;48.714;9.472;2023-04-06T13:10:49;98224.94;;;15.40;26.70
6413;BME280;3239;48.714;9.472;2023-04-06T13:13:15;98210.88;;;17.20;27.42
6413;BME280;3239;48.714;9.472;2023-04-06T13:15:41;98208.03;;;17.28;26.65
6413;BME280;3239;48.714;9.472;2023-04-06T13:18:08;98204.22;;;16.99;25.61
6413;BME280;3239;48.714;9.472;2023-04-06T13:20:34;98199.13;;;17.54;24.51
6413;BME280;3239;48.714;9.472;2023-04-06T13:23:00;98204.63;;;17.88;25.76
6413;BME280;3239;48.714;9.472;2023-04-06T13:25:26;98203.25;;;17.79;26.43